Time;durP1;ratioP1;P1;durP2;ratioP2;P2;SDS_P1;SDS_P2;PMS_P1;PMS_P2;Temp;Humidity;BMP_temperature;BMP_pressure;BME280_temperature;BME280_humidity;BME280_pressure;Samples;Min_cycle;Max_cycle;Signal;HPM_P1;HPM_P2
2023/06/26 00:00:00;;;;;;;4.85;4.45;;;;;;;24.48;56.46;101212.81;5013945;28;20045;-52
2023/06/26 00:02:25;;;;;;;4.78;4.28;;;;;;;24.47;56.60;101211.13;5022110;28;20087;-52
2023/06/26 00:04:53;;;;;;;5.00;4.53;;;;;;;24.47;56.44;101216.56;5013192;28;20109;-51
2023/06/26 00:07:19;;;;;;;5.40;4.90;;;;;;;24.47;56.66;101207.56;5020834;28;20040;-51
2023/06/26 00:09:45;;;;;;;6.05;4.78;;;;;;;24.46;56.66;101209.44;5016489;28;20044;-51
2023/06/26 00:12:11;;;;;;;6.10;4.45;;;;;;;24.47;57.05;101202.13;5018851;28;20113;-51
2023/06/26 00:14:37;;;;;;;4.85;4.45;;;;;;;24.46;56.31;101203.16;5017661;28;20050;-49
2023/06/26 00:17:03;;;;;;;5.15;4.65;;;;;;;24.45;56.64;101202.31;5018581;28;20087;-48
2023/06/26 00:19:28;;;;;;;4.80;4.40;;;;;;;24.44;56.81;101203.31;5021944;28;20029;-50
2023/06/26 00:21:54;;;;;;;7.00;4.78;;;;;;;24.44;56.61;101200.59;5020845;28;20100;-51
2023/06/26 00:24:19;;;;;;;5.72;4.22;;;;;;;24.44;56.38;101203.31;5019411;28;20036;-49
2023/06/26 00:26:47;;;;;;;5.30;4.80;;;;;;;24.44;56.45;101199.75;5019933;28;20026;-51
2023/06/26 00:29:12;;;;;;;4.93;4.43;;;;;;;24.43;56.37;101203.50;5017281;28;20030;-50
2023/06/26 00:31:39;;;;;;;4.93;4.43;;;;;;;24.43;56.43;101201.63;5020463;28;20088;-51
2023/06/26 00:34:05;;;;;;;5.22;4.72;;;;;;;24.42;56.63;101197.22;5018317;28;20040;-51
2023/06/26 00:36:30;;;;;;;7.43;4.50;;;;;;;24.43;56.51;101198.06;5014753;28;20105;-50
2023/06/26 00:38:56;;;;;;;4.82;4.22;;;;;;;24.43;56.70;101198.91;5020863;28;20033;-50
2023/06/26 00:41:21;;;;;;;5.18;4.65;;;;;;;24.42;56.27;101197.22;5017846;28;20499;-51
2023/06/26 00:43:46;;;;;;;5.18;4.78;;;;;;;24.42;56.17;101186.31;5020760;28;20033;-50
2023/06/26 00:46:13;;;;;;;5.35;4.85;;;;;;;24.41;56.35;101192.81;5017781;28;20041;-51
2023/06/26 00:48:41;;;;;;;5.32;4.82;;;;;;;24.40;56.30;101193.81;5022039;28;20037;-51
2023/06/26 00:51:07;;;;;;;4.25;3.95;;;;;;;24.41;56.13;101200.97;5021414;28;20384;-51
2023/06/26 00:53:33;;;;;;;4.85;4.45;;;;;;;24.39;56.11;101198.44;5021829;28;20030;-51
2023/06/26 00:56:00;;;;;;;4.85;4.45;;;;;;;24.40;55.86;101205.56;5017147;28;20464;-48
2023/06/26 00:58:26;;;;;;;5.10;4.55;;;;;;;24.39;55.69;101200.31;5020258;28;20057;-51
2023/06/26 01:00:52;;;;;;;5.55;4.88;;;;;;;24.39;55.68;101203.03;5018036;28;20072;-51
2023/06/26 01:03:19;;;;;;;6.18;4.75;;;;;;;24.39;55.66;101203.88;5019880;28;20081;-49
2023/06/26 01:05:45;;;;;;;5.07;4.57;;;;;;;24.38;55.70;101199.44;5019546;28;20061;-50
2023/06/26 01:08:13;;;;;;;5.65;4.63;;;;;;;24.38;55.53;101204.06;5021401;28;20034;-48
2023/06/26 01:10:39;;;;;;;4.40;4.00;;;;;;;24.38;56.04;101206.78;5020358;28;20391;-51
2023/06/26 01:13:05;;;;;;;4.97;4.45;;;;;;;24.39;55.73;101216.66;5017038;28;20082;-49
2023/06/26 01:15:30;;;;;;;5.38;4.88;;;;;;;24.38;55.68;101212.22;5018702;28;20096;-50
2023/06/26 01:17:59;;;;;;;4.90;4.50;;;;;;;24.37;55.40;101216.81;5016271;28;20046;-51
2023/06/26 01:20:25;;;;;;;5.35;4.85;;;;;;;24.38;56.01;101220.38;5023241;28;20038;-51
2023/06/26 01:23:08;;;;;;;4.50;4.10;;;;;;;24.37;55.81;101216.81;5018469;28;20041;-50
2023/06/26 01:25:40;;;;;;;5.03;4.53;;;;;;;24.37;55.86;101226.88;5021517;28;20101;-50
2023/06/26 01:28:06;;;;;;;6.75;4.65;;;;;;;24.37;55.36;101226.88;5015252;28;20052;-51
2023/06/26 01:30:33;;;;;;;5.10;4.60;;;;;;;24.35;55.47;101224.31;5023183;28;20357;-51
2023/06/26 01:33:00;;;;;;;5.20;4.70;;;;;;;24.35;55.24;101226.16;5018366;28;20426;-52
2023/06/26 01:35:27;;;;;;;5.25;4.75;;;;;;;24.36;55.43;101238.75;5015817;28;20037;-49
2023/06/26 01:37:52;;;;;;;5.03;4.63;;;;;;;24.35;55.39;101224.31;5020670;28;20045;-52
2023/06/26 01:40:18;;;;;;;4.40;4.05;;;;;;;24.35;55.29;101218.88;5022920;28;20026;-51
2023/06/26 01:42:43;;;;;;;5.25;4.75;;;;;;;24.36;55.31;101227.88;5018621;28;20148;-51
2023/06/26 01:45:24;;;;;;;4.65;4.25;;;;;;;24.36;55.49;101241.47;5017263;28;20030;-50
2023/06/26 01:47:52;;;;;;;4.73;4.40;;;;;;;24.35;55.33;101237.06;5019873;28;20464;-51
2023/06/26 01:50:24;;;;;;;5.22;4.70;;;;;;;24.34;55.54;101249.81;5022518;28;20494;-49
2023/06/26 01:53:10;;;;;;;5.13;4.63;;;;;;;24.34;54.95;101244.38;5013689;28;20443;-49
2023/06/26 01:55:47;;;;;;;5.03;4.57;;;;;;;24.33;55.03;101259.03;5023311;28;20083;-49
2023/06/26 01:58:14;;;;;;;5.03;4.53;;;;;;;24.33;54.96;101252.72;5014647;28;20026;-51
2023/06/26 02:00:40;;;;;;;5.32;4.32;;;;;;;24.33;55.35;101256.31;5017303;28;20030;-49
2023/06/26 02:03:06;;;;;;;5.47;4.57;;;;;;;24.32;55.08;101246.44;5019797;28;20589;-49
2023/06/26 02:05:32;;;;;;;5.10;4.60;;;;;;;24.33;55.08;101263.59;5019948;28;20037;-48
2023/06/26 02:07:58;;;;;;;4.47;4.07;;;;;;;24.31;55.00;101263.81;5017833;28;20021;-50
2023/06/26 02:10:23;;;;;;;5.18;4.68;;;;;;;24.31;55.00;101257.50;5018398;28;20432;-49
2023/06/26 02:12:48;;;;;;;5.07;4.63;;;;;;;24.32;54.79;101261.94;5016910;28;20101;-52
2023/06/26 02:15:14;;;;;;;4.55;4.15;;;;;;;24.31;54.91;101261.09;5019433;28;20471;-50
2023/06/26 02:17:39;;;;;;;4.95;4.45;;;;;;;24.31;54.86;101261.09;5019814;28;20032;-51
2023/06/26 02:20:05;;;;;;;4.45;4.05;;;;;;;24.31;54.79;101257.50;5013950;28;20030;-51
2023/06/26 02:22:31;;;;;;;4.60;4.20;;;;;;;24.29;55.07;101254.94;5019316;28;20033;-50
2023/06/26 02:24:57;;;;;;;3.95;3.65;;;;;;;24.30;55.26;101253.94;5016574;28;20041;-52
2023/06/26 02:27:22;;;;;;;4.15;3.75;;;;;;;24.30;54.94;101258.53;5015206;28;20042;-52
2023/06/26 02:29:47;;;;;;;5.78;4.22;;;;;;;24.28;55.06;101255.16;5019705;28;20061;-48
2023/06/26 02:32:13;;;;;;;3.75;3.45;;;;;;;24.29;54.87;101262.28;5020384;28;20057;-50
2023/06/26 02:34:38;;;;;;;5.18;3.95;;;;;;;24.28;54.84;101264.16;5013781;28;20029;-50
2023/06/26 02:37:06;;;;;;;4.40;3.92;;;;;;;24.28;54.62;101261.44;5017436;28;20025;-50
2023/06/26 02:39:31;;;;;;;3.95;3.38;;;;;;;24.28;54.45;101268.75;5018389;28;20026;-51
2023/06/26 02:41:57;;;;;;;5.88;3.88;;;;;;;24.27;54.99;101267.88;5017426;28;20066;-51
2023/06/26 02:44:22;;;;;;;4.35;3.95;;;;;;;24.28;54.68;101274.19;5018180;28;20029;-51
2023/06/26 02:46:48;;;;;;;4.32;3.90;;;;;;;24.28;54.79;101282.38;5017516;28;20044;-48
2023/06/26 02:49:13;;;;;;;4.15;3.75;;;;;;;24.27;54.68;101280.66;5019108;28;20029;-52
2023/06/26 02:51:38;;;;;;;4.40;4.00;;;;;;;24.26;54.61;101277.09;5021888;28;20030;-51
2023/06/26 02:54:04;;;;;;;4.18;3.50;;;;;;;24.26;54.67;101276.25;5018404;28;20095;-51
2023/06/26 02:56:29;;;;;;;3.88;3.58;;;;;;;24.26;54.44;101278.97;5019684;28;20109;-50
2023/06/26 02:58:58;;;;;;;4.20;3.80;;;;;;;24.24;54.50;101287.31;5016412;28;20057;-51
2023/06/26 03:01:23;;;;;;;4.20;3.80;;;;;;;24.24;54.47;101303.63;5016970;28;20033;-50
2023/06/26 03:03:49;;;;;;;3.70;3.40;;;;;;;24.24;54.75;101297.31;5018708;28;20480;-50
2023/06/26 03:06:15;;;;;;;4.20;3.63;;;;;;;24.24;54.69;101308.19;5017438;28;20029;-51
2023/06/26 03:08:40;;;;;;;4.53;3.92;;;;;;;24.23;54.47;101295.63;5015165;28;20112;-47
2023/06/26 03:11:07;;;;;;;4.13;3.47;;;;;;;24.22;54.47;101305.69;5020051;28;20104;-51
2023/06/26 03:13:34;;;;;;;3.88;3.47;;;;;;;24.23;54.57;101303.81;5026688;28;20556;-50
2023/06/26 03:16:00;;;;;;;4.57;3.92;;;;;;;24.22;54.55;101302.97;5021238;28;20079;-50
2023/06/26 03:18:25;;;;;;;3.38;3.05;;;;;;;24.22;54.54;101302.97;5018982;28;20108;-46
2023/06/26 03:20:53;;;;;;;4.10;3.67;;;;;;;24.21;54.61;101298.53;5017623;28;20034;-51
2023/06/26 03:23:19;;;;;;;3.97;3.35;;;;;;;24.22;54.31;101293.94;5016082;28;20030;-51
2023/06/26 03:25:44;;;;;;;3.63;3.33;;;;;;;24.20;54.65;101303.13;5010416;28;20030;-50
2023/06/26 03:28:10;;;;;;;4.43;4.03;;;;;;;24.20;54.56;101302.28;5016720;28;20518;-52
2023/06/26 03:30:35;;;;;;;4.00;3.20;;;;;;;24.20;54.42;101303.13;5012203;28;20034;-50
2023/06/26 03:33:00;;;;;;;3.95;3.50;;;;;;;24.20;54.50;101300.41;5019902;28;20041;-51
2023/06/26 03:35:26;;;;;;;4.03;3.63;;;;;;;24.19;54.29;101285.09;5015372;28;20037;-51
2023/06/26 03:37:51;;;;;;;3.85;3.20;;;;;;;24.19;54.68;101301.44;5012270;28;20045;-51
2023/06/26 03:40:16;;;;;;;4.78;3.50;;;;;;;24.19;54.13;101295.97;5022664;28;20029;-51
2023/06/26 03:42:42;;;;;;;4.65;3.17;;;;;;;24.18;54.56;101297.03;5024001;28;20052;-49
2023/06/26 03:45:08;;;;;;;4.35;3.40;;;;;;;24.19;54.43;101301.44;5016151;28;20120;-51
2023/06/26 03:47:33;;;;;;;3.55;3.25;;;;;;;24.18;54.60;101305.19;5021770;28;20022;-47
2023/06/26 03:49:59;;;;;;;3.10;2.88;;;;;;;24.18;54.42;101305.19;5021164;28;20506;-51
2023/06/26 03:52:24;;;;;;;3.58;3.20;;;;;;;24.18;54.57;101313.34;5017306;28;20033;-50
2023/06/26 03:54:49;;;;;;;4.22;3.67;;;;;;;24.18;54.38;101316.06;5025433;28;20064;-50
2023/06/26 03:57:15;;;;;;;3.55;3.00;;;;;;;24.18;54.62;101309.78;5020192;28;20152;-51
2023/06/26 03:59:40;;;;;;;3.67;3.38;;;;;;;24.17;54.13;101317.09;5020224;28;20084;-50
2023/06/26 04:02:05;;;;;;;3.80;3.33;;;;;;;24.17;54.21;101321.69;5024079;28;20523;-51
2023/06/26 04:04:31;;;;;;;3.47;3.08;;;;;;;24.18;54.14;101320.66;5020595;28;20116;-47
2023/06/26 04:06:58;;;;;;;3.75;2.72;;;;;;;24.17;54.18;101329.84;5026097;28;20030;-49
2023/06/26 04:09:24;;;;;;;3.53;3.22;;;;;;;24.16;54.39;101339.88;5027696;28;20087;-51
2023/06/26 04:11:49;;;;;;;3.22;2.92;;;;;;;24.16;54.49;101341.75;5018055;28;20034;-50
2023/06/26 04:14:15;;;;;;;4.65;3.25;;;;;;;24.15;54.35;101345.50;5023483;28;20049;-50
2023/06/26 04:16:40;;;;;;;3.13;2.83;;;;;;;24.15;54.38;101357.22;5018140;28;20041;-51
2023/06/26 04:19:06;;;;;;;4.80;3.50;;;;;;;24.16;54.35;101355.34;5019455;28;20069;-50
2023/06/26 04:21:31;;;;;;;4.07;3.67;;;;;;;24.14;54.47;101347.38;5022192;28;20052;-51
2023/06/26 04:23:56;;;;;;;6.00;3.50;;;;;;;24.14;54.09;101347.38;5018311;28;20049;-52
2023/06/26 04:26:22;;;;;;;3.63;2.85;;;;;;;24.14;54.25;101355.53;5016810;28;20095;-50
2023/06/26 04:28:48;;;;;;;3.20;2.88;;;;;;;24.13;54.47;101364.72;5023636;28;20076;-51
2023/06/26 04:31:13;;;;;;;3.88;2.90;;;;;;;24.13;54.17;101358.44;5018741;28;20038;-51
2023/06/26 04:33:39;;;;;;;3.47;3.17;;;;;;;24.12;54.05;101357.59;5018486;28;20041;-50
2023/06/26 04:36:05;;;;;;;3.63;3.20;;;;;;;24.12;54.57;101363.03;5021132;28;20030;-51
2023/06/26 04:38:33;;;;;;;4.10;3.00;;;;;;;24.13;54.31;101358.44;5018369;28;20030;-50
2023/06/26 04:40:59;;;;;;;3.67;3.17;;;;;;;24.12;54.31;101354.88;5020809;28;20038;-49
2023/06/26 04:43:24;;;;;;;4.00;3.08;;;;;;;24.11;53.96;101358.59;5024049;28;20041;-51
2023/06/26 04:45:50;;;;;;;4.72;3.22;;;;;;;24.12;54.21;101368.47;5014472;28;20034;-51
2023/06/26 04:48:15;;;;;;;4.22;3.40;;;;;;;24.12;54.06;101359.44;5018914;28;20030;-49
2023/06/26 04:50:41;;;;;;;4.90;3.35;;;;;;;24.11;54.32;101380.38;5017432;28;20476;-51
2023/06/26 04:53:06;;;;;;;5.40;3.15;;;;;;;24.12;54.30;101375.75;5019196;28;20468;-52
2023/06/26 04:55:32;;;;;;;4.40;3.15;;;;;;;24.11;53.99;101380.38;5016460;28;20496;-52
2023/06/26 04:57:57;;;;;;;3.78;2.78;;;;;;;24.11;54.22;101385.81;5017974;28;20061;-50
2023/06/26 05:00:24;;;;;;;4.00;3.30;;;;;;;24.10;53.96;101384.09;5019785;28;20100;-51
2023/06/26 05:02:58;;;;;;;6.63;3.15;;;;;;;24.10;54.29;101383.25;5019682;28;20495;-51
2023/06/26 05:05:24;;;;;;;4.93;3.35;;;;;;;24.09;54.14;101387.84;5017756;28;20026;-51
2023/06/26 05:07:49;;;;;;;3.13;2.83;;;;;;;24.09;53.94;101392.47;5017528;28;20069;-51
2023/06/26 05:10:15;;;;;;;3.83;3.15;;;;;;;24.09;54.17;101393.28;5017788;28;20126;-52
2023/06/26 05:12:41;;;;;;;4.05;3.00;;;;;;;24.10;54.40;101403.13;5019964;28;20057;-51
2023/06/26 05:15:06;;;;;;;4.07;2.97;;;;;;;24.08;53.75;101407.91;5019316;28;20033;-51
2023/06/26 05:17:32;;;;;;;4.15;2.85;;;;;;;24.09;54.32;101415.06;5020111;28;20033;-50
2023/06/26 05:19:57;;;;;;;4.35;2.83;;;;;;;24.08;54.48;101410.63;5013848;28;20121;-49
2023/06/26 05:22:23;;;;;;;3.85;2.85;;;;;;;24.09;54.01;101415.06;5017091;28;20038;-52
2023/06/26 05:24:50;;;;;;;3.08;2.70;;;;;;;24.09;54.31;101409.63;5022218;28;20052;-51
2023/06/26 05:27:21;;;;;;;3.80;3.10;;;;;;;24.09;54.21;101412.34;5019016;28;20049;-52
2023/06/26 05:29:47;;;;;;;5.53;3.20;;;;;;;24.09;54.08;101420.50;5015357;28;20050;-51
2023/06/26 05:32:17;;;;;;;3.75;2.85;;;;;;;24.09;53.74;101417.78;5022428;28;20036;-52
2023/06/26 05:34:47;;;;;;;3.28;2.60;;;;;;;24.09;54.11;101416.94;5020746;28;20038;-48
2023/06/26 05:37:16;;;;;;;3.20;2.60;;;;;;;24.08;53.99;101426.94;5019129;28;20025;-51
2023/06/26 05:39:42;;;;;;;3.55;2.90;;;;;;;24.09;54.13;101425.09;5019690;28;20037;-51
2023/06/26 05:42:08;;;;;;;2.97;2.63;;;;;;;24.09;54.05;101423.22;5020884;28;20388;-50
2023/06/26 05:44:33;;;;;;;3.08;2.75;;;;;;;24.10;54.19;101426.78;5018232;28;20042;-51
2023/06/26 05:46:59;;;;;;;4.03;3.15;;;;;;;24.09;54.15;101425.94;5022387;28;20499;-48
2023/06/26 05:49:24;;;;;;;2.92;2.65;;;;;;;24.09;53.85;101435.97;5018278;28;20045;-51
2023/06/26 05:51:49;;;;;;;4.20;2.92;;;;;;;24.08;53.94;101439.72;5016102;28;20519;-51
2023/06/26 05:54:15;;;;;;;3.67;2.72;;;;;;;24.08;54.08;101446.00;5019470;28;20061;-49
2023/06/26 05:56:41;;;;;;;4.53;2.97;;;;;;;24.09;54.03;101453.16;5019589;28;20029;-51
2023/06/26 05:59:08;;;;;;;3.42;2.80;;;;;;;24.08;54.15;101456.03;5016816;28;20041;-51
2023/06/26 06:01:34;;;;;;;4.15;2.60;;;;;;;24.07;53.89;101455.19;5019053;28;20464;-51
2023/06/26 06:03:59;;;;;;;4.15;2.53;;;;;;;24.08;54.08;101458.75;5015007;28;20037;-51
2023/06/26 06:06:24;;;;;;;4.32;2.78;;;;;;;24.08;54.10;101456.03;5013370;28;20053;-50
2023/06/26 06:08:50;;;;;;;4.78;3.17;;;;;;;24.08;54.00;101459.59;5017151;28;20065;-50
2023/06/26 06:11:15;;;;;;;4.32;2.80;;;;;;;24.07;54.31;101463.34;5015735;28;20468;-50
2023/06/26 06:13:41;;;;;;;3.75;3.22;;;;;;;24.07;54.12;101471.53;5019976;28;20082;-51
2023/06/26 06:16:06;;;;;;;4.10;2.92;;;;;;;24.08;53.93;101478.66;5016519;28;20028;-51
2023/06/26 06:18:31;;;;;;;5.45;3.00;;;;;;;24.07;53.77;101476.97;5017113;28;20026;-50
2023/06/26 06:20:57;;;;;;;3.30;2.63;;;;;;;24.07;54.10;101474.25;5017910;28;20036;-51
2023/06/26 06:23:23;;;;;;;3.00;2.70;;;;;;;24.07;54.28;101479.69;5019465;28;20063;-51
2023/06/26 06:25:48;;;;;;;3.17;2.53;;;;;;;24.07;54.07;101485.13;5022491;28;20439;-51
2023/06/26 06:28:16;;;;;;;3.55;2.40;;;;;;;24.07;54.12;101487.00;5015338;28;20030;-49
2023/06/26 06:30:41;;;;;;;3.50;2.50;;;;;;;24.07;54.20;101485.13;5017232;28;20057;-51
2023/06/26 06:33:06;;;;;;;4.88;2.58;;;;;;;24.07;53.96;101492.44;5020872;28;20112;-50
2023/06/26 06:35:32;;;;;;;6.35;3.08;;;;;;;24.07;53.85;101484.28;5021762;28;20029;-49
2023/06/26 06:37:57;;;;;;;3.33;2.47;;;;;;;24.06;54.15;101491.56;5014617;28;20423;-51
2023/06/26 06:40:22;;;;;;;2.50;2.30;;;;;;;24.08;53.96;101494.13;5022135;28;20033;-50
2023/06/26 06:42:48;;;;;;;3.88;2.67;;;;;;;24.06;54.14;101497.00;5018205;28;20057;-51
2023/06/26 06:45:13;;;;;;;3.10;2.42;;;;;;;24.06;54.27;101497.00;5012835;28;20026;-49
2023/06/26 06:47:39;;;;;;;3.83;2.40;;;;;;;24.06;54.36;101502.44;5015089;28;20579;-49
2023/06/26 06:50:08;;;;;;;3.80;2.63;;;;;;;24.08;54.26;101524.06;5014875;28;20056;-51
2023/06/26 06:52:40;;;;;;;3.30;2.55;;;;;;;24.08;54.31;101513.16;5018067;28;20451;-48
2023/06/26 06:55:10;;;;;;;5.00;2.58;;;;;;;24.07;54.18;101514.22;5020038;28;20501;-52
2023/06/26 06:57:37;;;;;;;3.25;2.28;;;;;;;24.07;54.18;101515.03;5017529;28;20464;-50
2023/06/26 07:00:14;;;;;;;4.18;2.70;;;;;;;24.07;54.28;101520.50;5023380;28;20494;-51
2023/06/26 07:02:42;;;;;;;4.90;2.67;;;;;;;24.07;54.24;101523.22;5017723;28;20066;-52
2023/06/26 07:05:07;;;;;;;4.35;2.80;;;;;;;24.08;54.36;101532.22;5015618;28;20033;-49
2023/06/26 07:07:35;;;;;;;2.63;2.30;;;;;;;24.07;54.20;101542.25;5020165;28;20040;-51
2023/06/26 07:10:03;;;;;;;3.55;2.70;;;;;;;24.07;54.12;101539.53;5017147;28;20121;-49
2023/06/26 07:12:28;;;;;;;2.90;2.40;;;;;;;24.08;54.48;101538.50;5022953;28;20049;-50
2023/06/26 07:14:56;;;;;;;3.65;2.72;;;;;;;24.08;54.00;101532.22;5020556;28;20041;-48
2023/06/26 07:17:21;;;;;;;2.53;2.33;;;;;;;24.08;54.26;101533.06;5019854;28;20431;-51
2023/06/26 07:19:47;;;;;;;2.58;2.33;;;;;;;24.07;54.15;101536.81;5015239;28;20061;-50
2023/06/26 07:22:13;;;;;;;2.38;2.13;;;;;;;24.07;53.91;101547.69;5015769;28;20364;-51
2023/06/26 07:24:38;;;;;;;2.45;2.10;;;;;;;24.08;54.24;101549.38;5014887;28;20026;-51
2023/06/26 07:27:03;;;;;;;3.38;2.45;;;;;;;24.08;54.05;101560.25;5018103;28;20040;-50
2023/06/26 07:29:29;;;;;;;3.00;2.30;;;;;;;24.08;54.27;101559.41;5018492;28;20029;-51
2023/06/26 07:31:54;;;;;;;2.70;2.17;;;;;;;24.08;54.02;101565.69;5023064;28;20033;-49
2023/06/26 07:34:20;;;;;;;3.08;2.38;;;;;;;24.08;54.00;101562.97;5019428;28;20376;-49
2023/06/26 07:36:45;;;;;;;3.10;2.53;;;;;;;24.07;53.97;101561.28;5015749;28;20061;-49
2023/06/26 07:39:11;;;;;;;2.75;2.10;;;;;;;24.08;54.49;101564.84;5017081;28;20484;-51
2023/06/26 07:41:36;;;;;;;2.47;2.25;;;;;;;24.08;54.43;101571.13;5020813;28;20088;-50
2023/06/26 07:44:01;;;;;;;2.75;2.40;;;;;;;24.08;54.19;101575.75;5016943;28;20454;-51
2023/06/26 07:46:27;;;;;;;2.65;2.28;;;;;;;24.09;53.94;101582.91;5015999;28;20033;-51
2023/06/26 07:48:52;;;;;;;2.53;2.30;;;;;;;24.08;54.19;101578.47;5014250;28;20488;-50
2023/06/26 07:51:18;;;;;;;2.85;2.40;;;;;;;24.08;53.85;101590.19;5015610;28;20038;-51
2023/06/26 07:53:43;;;;;;;2.50;1.92;;;;;;;24.07;54.40;101593.94;5016812;28;20030;-49
2023/06/26 07:56:09;;;;;;;3.88;2.22;;;;;;;24.08;54.28;101594.78;5017766;28;20387;-48
2023/06/26 07:58:34;;;;;;;2.85;2.28;;;;;;;24.09;54.29;101604.66;5016368;28;20056;-51
2023/06/26 08:00:59;;;;;;;3.88;2.33;;;;;;;24.09;54.30;101599.22;5014863;28;20029;-50
2023/06/26 08:03:25;;;;;;;2.60;2.40;;;;;;;24.08;54.18;101603.78;5017325;28;20460;-48
2023/06/26 08:05:50;;;;;;;2.92;2.45;;;;;;;24.08;54.38;101600.22;5017717;28;20022;-50
2023/06/26 08:08:15;;;;;;;3.47;1.92;;;;;;;24.08;54.42;101602.94;5014675;28;20034;-50
2023/06/26 08:10:41;;;;;;;3.65;2.35;;;;;;;24.08;54.02;101609.22;5015581;28;20022;-49
2023/06/26 08:13:06;;;;;;;2.45;2.15;;;;;;;24.08;54.27;101614.69;5017485;28;20076;-51
2023/06/26 08:15:32;;;;;;;3.22;2.22;;;;;;;24.08;54.06;101608.38;5024645;28;20024;-50
2023/06/26 08:17:57;;;;;;;2.95;2.40;;;;;;;24.09;54.32;101621.00;5013943;28;20472;-51
2023/06/26 08:20:22;;;;;;;2.80;1.98;;;;;;;24.09;53.93;101608.22;5016924;28;20476;-48
2023/06/26 08:22:51;;;;;;;3.47;2.38;;;;;;;24.08;53.84;101608.38;5019825;28;20060;-51
2023/06/26 08:25:16;;;;;;;2.50;2.00;;;;;;;24.09;54.37;101619.13;5012314;28;20030;-49
2023/06/26 08:27:42;;;;;;;3.83;2.08;;;;;;;24.09;54.42;101615.56;5020491;28;20033;-50
2023/06/26 08:30:08;;;;;;;2.42;1.98;;;;;;;24.09;54.11;101610.94;5020482;28;20026;-51
2023/06/26 08:32:33;;;;;;;4.60;2.50;;;;;;;24.09;54.20;101616.38;5018852;28;20021;-46
2023/06/26 08:34:59;;;;;;;2.22;2.03;;;;;;;24.10;54.65;101619.97;5020597;28;20032;-51
2023/06/26 08:37:24;;;;;;;2.90;2.22;;;;;;;24.09;54.73;101616.38;5019600;28;20026;-51
2023/06/26 08:39:49;;;;;;;2.72;2.30;;;;;;;24.09;54.21;101618.28;5021367;28;20038;-50
2023/06/26 08:42:15;;;;;;;2.30;2.10;;;;;;;24.09;53.96;101615.56;5023086;28;20021;-51
2023/06/26 08:44:40;;;;;;;2.17;1.98;;;;;;;24.09;54.48;101619.13;5019892;28;20029;-50
2023/06/26 08:47:06;;;;;;;3.15;2.40;;;;;;;24.10;54.36;101633.56;5019914;28;20034;-51
2023/06/26 08:49:41;;;;;;;2.00;1.80;;;;;;;24.10;54.11;101628.97;5017980;28;20057;-50
2023/06/26 08:52:30;;;;;;;2.20;1.95;;;;;;;24.12;54.10;101640.56;5022632;28;20037;-48
2023/06/26 08:54:58;;;;;;;3.22;2.08;;;;;;;24.10;54.42;101645.28;5021026;28;20029;-49
2023/06/26 08:57:26;;;;;;;2.45;2.17;;;;;;;24.10;54.43;101645.28;5020098;28;20026;-51
2023/06/26 08:59:52;;;;;;;3.40;2.20;;;;;;;24.09;54.59;101646.31;5021977;28;20083;-50
2023/06/26 09:02:17;;;;;;;2.85;1.95;;;;;;;24.09;54.23;101643.59;5020648;28;20147;-48
2023/06/26 09:04:43;;;;;;;2.67;2.20;;;;;;;24.10;54.16;101649.88;5019180;28;20114;-50
2023/06/26 09:07:09;;;;;;;2.13;1.90;;;;;;;24.10;54.18;101649.88;5019962;28;20026;-48
2023/06/26 09:09:35;;;;;;;2.25;2.00;;;;;;;24.10;54.17;101649.88;5017303;28;20030;-51
2023/06/26 09:12:03;;;;;;;2.63;1.90;;;;;;;24.09;54.42;101649.03;5020493;28;20360;-51
2023/06/26 09:14:29;;;;;;;1.92;1.70;;;;;;;24.09;54.20;101654.47;5017622;28;20046;-50
2023/06/26 09:16:54;;;;;;;2.72;2.17;;;;;;;24.10;54.53;101655.31;5018750;28;20029;-49
2023/06/26 09:19:20;;;;;;;2.42;1.88;;;;;;;24.11;54.40;101665.22;5023919;28;20041;-50
2023/06/26 09:21:49;;;;;;;1.77;1.60;;;;;;;24.10;54.00;101664.34;5025835;28;20067;-49
2023/06/26 09:24:16;;;;;;;1.88;1.70;;;;;;;24.10;54.66;101660.75;5017444;28;20036;-50
2023/06/26 09:26:41;;;;;;;2.22;2.00;;;;;;;24.10;54.10;101656.16;5021832;28;20412;-50
2023/06/26 09:29:07;;;;;;;2.85;2.00;;;;;;;24.11;54.26;101668.78;5022621;28;20044;-51
2023/06/26 09:31:34;;;;;;;1.98;1.77;;;;;;;24.10;54.41;101660.75;5018625;28;20029;-50
2023/06/26 09:34:00;;;;;;;3.78;1.95;;;;;;;24.10;54.12;101664.34;5018244;28;20033;-49
2023/06/26 09:36:29;;;;;;;2.80;2.15;;;;;;;24.11;54.29;101670.66;5020803;28;20383;-50
2023/06/26 09:38:55;;;;;;;4.78;2.13;;;;;;;24.11;54.21;101684.25;5019334;28;20084;-48
2023/06/26 09:41:20;;;;;;;3.40;1.90;;;;;;;24.12;54.18;101685.94;5017242;28;20046;-48
2023/06/26 09:43:50;;;;;;;1.90;1.75;;;;;;;24.12;54.58;101686.81;5020948;28;20189;-49
2023/06/26 09:46:18;;;;;;;2.60;1.92;;;;;;;24.12;54.51;101692.25;5019019;28;20033;-48
2023/06/26 09:48:43;;;;;;;2.17;1.98;;;;;;;24.13;54.58;101693.09;5025406;28;20057;-51
2023/06/26 09:51:09;;;;;;;2.00;1.80;;;;;;;24.13;54.04;101693.94;5018451;28;20065;-50
2023/06/26 09:53:36;;;;;;;1.92;1.65;;;;;;;24.13;54.09;101699.38;5017348;28;20124;-50
2023/06/26 09:56:16;;;;;;;2.40;1.90;;;;;;;24.15;54.32;101713.66;5017394;28;20345;-50
2023/06/26 09:58:42;;;;;;;1.88;1.55;;;;;;;24.14;54.32;101701.09;5016821;28;20041;-49
2023/06/26 10:01:09;;;;;;;1.83;1.70;;;;;;;24.14;53.99;101695.66;5019320;28;20541;-51
2023/06/26 10:03:34;;;;;;;2.03;1.50;;;;;;;24.14;54.29;101702.94;5021388;28;20491;-50
2023/06/26 10:06:02;;;;;;;1.60;1.50;;;;;;;24.14;54.00;101701.09;5020020;28;20029;-50
2023/06/26 10:08:29;;;;;;;2.10;1.90;;;;;;;24.14;54.22;101706.53;5018808;28;20038;-50
2023/06/26 10:10:56;;;;;;;2.90;2.03;;;;;;;24.14;54.53;101702.94;5017315;28;20469;-50
2023/06/26 10:13:27;;;;;;;2.08;1.88;;;;;;;24.14;54.60;101717.41;5022874;28;20141;-50
2023/06/26 10:15:54;;;;;;;3.35;2.05;;;;;;;24.15;53.97;101724.56;5018135;28;20077;-48
2023/06/26 10:18:24;;;;;;;2.90;1.75;;;;;;;24.14;54.15;101711.97;5019396;28;20099;-49
2023/06/26 10:20:53;;;;;;;1.92;1.75;;;;;;;24.15;54.55;101719.09;5023188;28;20464;-50
2023/06/26 10:23:20;;;;;;;1.65;1.50;;;;;;;24.15;54.37;101724.56;5017261;28;20037;-49
2023/06/26 10:25:48;;;;;;;1.48;1.30;;;;;;;24.14;54.36;101711.97;5016765;28;20046;-47
2023/06/26 10:28:16;;;;;;;2.35;1.35;;;;;;;24.14;54.16;101720.16;5014196;28;20030;-50
2023/06/26 10:30:44;;;;;;;2.75;1.63;;;;;;;24.14;54.15;101728.31;5016206;28;20473;-50
2023/06/26 10:33:10;;;;;;;2.55;2.03;;;;;;;24.14;54.22;101722.00;5024183;28;20022;-50
2023/06/26 10:35:44;;;;;;;2.30;1.77;;;;;;;24.15;54.14;101718.25;5019816;28;20129;-50
2023/06/26 10:38:10;;;;;;;1.90;1.70;;;;;;;24.15;54.15;101724.56;5018624;28;20029;-50
2023/06/26 10:40:44;;;;;;;1.70;1.58;;;;;;;24.15;54.45;101723.72;5022399;28;20364;-50
2023/06/26 10:43:12;;;;;;;2.40;1.77;;;;;;;24.14;54.42;101722.88;5018983;28;20032;-50
2023/06/26 10:45:43;;;;;;;1.73;1.55;;;;;;;24.15;54.40;101731.88;5016453;28;20121;-47
2023/06/26 10:48:09;;;;;;;1.70;1.60;;;;;;;24.15;54.09;101746.31;5020780;28;20029;-48
2023/06/26 10:50:37;;;;;;;1.55;1.40;;;;;;;24.14;54.38;101739.19;5016343;28;20033;-49
2023/06/26 10:53:22;;;;;;;2.28;1.90;;;;;;;24.17;53.95;101743.44;5019732;28;20514;-50
2023/06/26 10:55:59;;;;;;;2.35;1.60;;;;;;;24.17;54.15;101740.72;5018736;28;20041;-49
2023/06/26 10:58:31;;;;;;;1.80;1.70;;;;;;;24.16;54.32;101730.84;5018547;28;20025;-50
2023/06/26 11:01:14;;;;;;;1.92;1.70;;;;;;;24.17;54.01;101738.84;5016620;28;20494;-48
2023/06/26 11:04:03;;;;;;;1.55;1.45;;;;;;;24.15;54.04;101749.03;5016337;28;20032;-50
2023/06/26 11:06:30;;;;;;;2.50;1.50;;;;;;;24.17;54.39;101743.44;5014202;28;20510;-50
2023/06/26 11:09:23;;;;;;;1.67;1.50;;;;;;;24.19;54.02;101752.28;5012773;28;20248;-47
2023/06/26 11:11:55;;;;;;;1.98;1.55;;;;;;;24.16;54.31;101753.47;5019598;28;20052;-50
2023/06/26 11:14:22;;;;;;;2.50;1.67;;;;;;;24.16;54.35;101753.47;5013983;28;20041;-48
2023/06/26 11:16:49;;;;;;;2.65;1.70;;;;;;;24.17;54.17;101749.72;5019831;28;20613;-48
2023/06/26 11:19:16;;;;;;;2.17;1.67;;;;;;;24.17;53.99;101755.16;5019608;28;20025;-48
2023/06/26 11:21:42;;;;;;;2.00;1.80;;;;;;;24.17;54.25;101760.59;5014103;28;20480;-50